Ankang Airport


Codes: ZLAK/AKA
Name: Ankang Airport
City: Ankang
Country: China
Elevation: 0 ft.

Photos at Ankang Airport


   Photos courtesy of SpottingLog. You can add your own sightings and photos by signing up for a free trial today.



No photos found.

Weather at Ankang Airport


Time (UTC)DescriptionTempratureWindCloud coverageVisibilityPressureHumidity
26-Jun-2024 00:00Broken Clouds25°C2 mph, SE83%10000m1011hPa63%
26-Jun-2024 03:00Overcast Clouds27°C7 mph, SE89%10000m1011hPa57%
26-Jun-2024 06:00Overcast Clouds32°C11 mph, E94%10000m1008hPa41%
26-Jun-2024 09:00Overcast Clouds34°C9 mph, SE100%10000m1006hPa33%
26-Jun-2024 12:00Overcast Clouds27°C4 mph, SE100%10000m1008hPa61%
26-Jun-2024 15:00Overcast Clouds24°C2 mph, W96%10000m1010hPa77%
26-Jun-2024 18:00Broken Clouds21°C2 mph, W58%10000m1009hPa88%
26-Jun-2024 21:00Scattered Clouds20°C2 mph, NW35%10000m1009hPa91%
27-Jun-2024 00:00Few Clouds25°C2 mph, S21%10000m1010hPa72%
27-Jun-2024 03:00Clear Sky32°C2 mph, SE5%10000m1007hPa47%
27-Jun-2024 06:00Few Clouds35°C4 mph, SE12%10000m1003hPa35%
27-Jun-2024 09:00Broken Clouds35°C9 mph, SE53%10000m1001hPa35%
27-Jun-2024 12:00Broken Clouds29°C2 mph, S77%10000m1002hPa55%
27-Jun-2024 15:00Overcast Clouds26°C2 mph, SE100%10000m1004hPa63%
27-Jun-2024 18:00Overcast Clouds24°C2 mph, SE100%10000m1004hPa69%
27-Jun-2024 21:00Overcast Clouds23°C2 mph, E100%10000m1004hPa73%
28-Jun-2024 00:00Overcast Clouds26°C4 mph, E100%10000m1004hPa56%
28-Jun-2024 03:00Light Rain27°C7 mph, S100%10000m1003hPa60%
28-Jun-2024 06:00Overcast Clouds26°C2 mph, SW100%10000m1002hPa67%
28-Jun-2024 09:00Overcast Clouds25°C2 mph, NW100%10000m1002hPa73%
28-Jun-2024 12:00Overcast Clouds24°C2 mph, W100%10000m1002hPa80%
28-Jun-2024 15:00Light Rain23°C0 mph, NE100%10000m1003hPa87%
28-Jun-2024 18:00Overcast Clouds22°C0 mph, SW100%10000m1002hPa90%
28-Jun-2024 21:00Overcast Clouds22°C2 mph, W100%10000m1001hPa91%
29-Jun-2024 00:00Overcast Clouds23°C0 mph, SW97%10000m1002hPa86%
29-Jun-2024 03:00Light Rain26°C2 mph, N100%10000m1001hPa70%
29-Jun-2024 06:00Light Rain34°C2 mph, SE73%10000m998hPa38%
29-Jun-2024 09:00Broken Clouds35°C7 mph, SE67%10000m996hPa36%
29-Jun-2024 12:00Scattered Clouds29°C4 mph, SE39%10000m997hPa56%
29-Jun-2024 15:00Clear Sky24°C2 mph, SE0%10000m1000hPa72%
29-Jun-2024 18:00Clear Sky22°C0 mph, E0%10000m999hPa79%
29-Jun-2024 21:00Clear Sky21°C2 mph, S2%10000m999hPa86%
30-Jun-2024 00:00Scattered Clouds26°C2 mph, SE42%10000m1001hPa66%
30-Jun-2024 03:00Scattered Clouds34°C2 mph, SW47%10000m999hPa43%
30-Jun-2024 06:00Scattered Clouds39°C4 mph, S50%10000m995hPa28%
30-Jun-2024 09:00Scattered Clouds40°C7 mph, SW34%10000m993hPa22%
30-Jun-2024 12:00Light Rain23°C7 mph, SW67%10000m1001hPa89%
30-Jun-2024 15:00Light Rain22°C2 mph, NW100%10000m1002hPa90%
30-Jun-2024 18:00Overcast Clouds20°C2 mph, NW95%10000m1001hPa92%
30-Jun-2024 21:00Overcast Clouds20°C2 mph, W98%10000m1001hPa91%